sensor_id;sensor_type;location;lat;lon;timestamp;temperature;humidity
47090;DHT22;32840;52.516;13.294;2023-08-08T00:01:54;16.00;99.90
47090;DHT22;32840;52.516;13.294;2023-08-08T00:04:39;16.00;99.90
47090;DHT22;32840;52.516;13.294;2023-08-08T00:07:24;15.90;99.90
47090;DHT22;32840;52.516;13.294;2023-08-08T00:10:09;15.90;99.90
47090;DHT22;32840;52.516;13.294;2023-08-08T00:12:54;15.90;99.90
47090;DHT22;32840;52.516;13.294;2023-08-08T00:15:39;15.90;99.90
47090;DHT22;32840;52.516;13.294;2023-08-08T00:18:24;15.90;99.90
47090;DHT22;32840;52.516;13.294;2023-08-08T00:21:09;15.90;99.90
47090;DHT22;32840;52.516;13.294;2023-08-08T00:23:54;15.90;99.90
47090;DHT22;32840;52.516;13.294;2023-08-08T00:26:39;15.90;99.90
47090;DHT22;32840;52.516;13.294;2023-08-08T00:29:24;15.80;99.90
47090;DHT22;32840;52.516;13.294;2023-08-08T00:32:09;15.70;99.90
47090;DHT22;32840;52.516;13.294;2023-08-08T00:34:54;15.70;99.90
47090;DHT22;32840;52.516;13.294;2023-08-08T00:37:39;15.70;99.90
47090;DHT22;32840;52.516;13.294;2023-08-08T00:40:24;15.60;99.90
47090;DHT22;32840;52.516;13.294;2023-08-08T00:43:08;15.60;99.90
47090;DHT22;32840;52.516;13.294;2023-08-08T00:45:53;15.60;99.90
47090;DHT22;32840;52.516;13.294;2023-08-08T00:48:39;15.60;99.90
47090;DHT22;32840;52.516;13.294;2023-08-08T00:51:24;15.50;99.90
47090;DHT22;32840;52.516;13.294;2023-08-08T00:54:10;15.50;99.90
47090;DHT22;32840;52.516;13.294;2023-08-08T00:56:55;15.50;99.90
47090;DHT22;32840;52.516;13.294;2023-08-08T00:59:40;15.50;99.90
47090;DHT22;32840;52.516;13.294;2023-08-08T01:02:25;15.50;99.90
47090;DHT22;32840;52.516;13.294;2023-08-08T01:05:10;15.50;99.90
47090;DHT22;32840;52.516;13.294;2023-08-08T01:08:05;15.50;99.90
47090;DHT22;32840;52.516;13.294;2023-08-08T01:10:50;15.50;99.90
47090;DHT22;32840;52.516;13.294;2023-08-08T01:13:37;15.40;99.90
47090;DHT22;32840;52.516;13.294;2023-08-08T01:16:24;15.50;99.90
47090;DHT22;32840;52.516;13.294;2023-08-08T01:19:13;15.40;99.90
47090;DHT22;32840;52.516;13.294;2023-08-08T01:22:02;15.30;99.90
47090;DHT22;32840;52.516;13.294;2023-08-08T01:24:49;15.30;99.90
47090;DHT22;32840;52.516;13.294;2023-08-08T01:27:35;15.30;99.90
47090;DHT22;32840;52.516;13.294;2023-08-08T01:30:20;15.30;99.90
47090;DHT22;32840;52.516;13.294;2023-08-08T01:33:06;15.20;99.90
47090;DHT22;32840;52.516;13.294;2023-08-08T01:36:07;15.10;99.90
47090;DHT22;32840;52.516;13.294;2023-08-08T01:38:59;15.20;99.90
47090;DHT22;32840;52.516;13.294;2023-08-08T01:41:48;15.20;99.90
47090;DHT22;32840;52.516;13.294;2023-08-08T01:44:34;15.20;99.90
47090;DHT22;32840;52.516;13.294;2023-08-08T01:47:20;15.20;99.90
47090;DHT22;32840;52.516;13.294;2023-08-08T01:50:05;15.10;99.90
47090;DHT22;32840;52.516;13.294;2023-08-08T01:52:51;15.20;99.90
47090;DHT22;32840;52.516;13.294;2023-08-08T01:55:37;15.20;99.90
47090;DHT22;32840;52.516;13.294;2023-08-08T01:58:22;15.30;99.90
47090;DHT22;32840;52.516;13.294;2023-08-08T02:01:07;15.30;99.90
47090;DHT22;32840;52.516;13.294;2023-08-08T02:03:52;15.40;99.90
47090;DHT22;32840;52.516;13.294;2023-08-08T02:06:37;15.40;99.90
47090;DHT22;32840;52.516;13.294;2023-08-08T02:09:22;15.30;99.90
47090;DHT22;32840;52.516;13.294;2023-08-08T02:12:07;15.30;99.90
47090;DHT22;32840;52.516;13.294;2023-08-08T02:14:51;15.30;99.90
47090;DHT22;32840;52.516;13.294;2023-08-08T02:17:37;15.30;99.90
47090;DHT22;32840;52.516;13.294;2023-08-08T02:20:22;15.20;99.90
47090;DHT22;32840;52.516;13.294;2023-08-08T02:23:07;15.30;99.90
47090;DHT22;32840;52.516;13.294;2023-08-08T02:25:52;15.20;99.90
47090;DHT22;32840;52.516;13.294;2023-08-08T02:28:37;15.20;99.90
47090;DHT22;32840;52.516;13.294;2023-08-08T02:31:22;15.20;99.90
47090;DHT22;32840;52.516;13.294;2023-08-08T02:34:07;15.20;99.90
47090;DHT22;32840;52.516;13.294;2023-08-08T02:36:52;15.20;99.90
47090;DHT22;32840;52.516;13.294;2023-08-08T02:39:38;15.20;99.90
47090;DHT22;32840;52.516;13.294;2023-08-08T02:42:22;15.00;99.90
47090;DHT22;32840;52.516;13.294;2023-08-08T02:45:08;15.00;99.90
47090;DHT22;32840;52.516;13.294;2023-08-08T02:47:53;15.00;99.90
47090;DHT22;32840;52.516;13.294;2023-08-08T02:50:38;15.00;99.90
47090;DHT22;32840;52.516;13.294;2023-08-08T02:53:22;14.90;99.90
47090;DHT22;32840;52.516;13.294;2023-08-08T02:56:07;14.90;99.90
47090;DHT22;32840;52.516;13.294;2023-08-08T02:58:52;14.90;99.90
47090;DHT22;32840;52.516;13.294;2023-08-08T03:01:37;14.90;99.90
47090;DHT22;32840;52.516;13.294;2023-08-08T03:04:23;14.90;99.90
47090;DHT22;32840;52.516;13.294;2023-08-08T03:07:08;14.80;99.90
47090;DHT22;32840;52.516;13.294;2023-08-08T03:09:53;14.80;99.90
47090;DHT22;32840;52.516;13.294;2023-08-08T03:12:38;14.80;99.90
47090;DHT22;32840;52.516;13.294;2023-08-08T03:15:24;14.80;99.90
47090;DHT22;32840;52.516;13.294;2023-08-08T03:18:09;14.80;99.90
47090;DHT22;32840;52.516;13.294;2023-08-08T03:20:54;14.80;99.90
47090;DHT22;32840;52.516;13.294;2023-08-08T03:23:39;14.80;99.90
47090;DHT22;32840;52.516;13.294;2023-08-08T03:26:25;14.80;99.90
47090;DHT22;32840;52.516;13.294;2023-08-08T03:29:11;14.80;99.90
47090;DHT22;32840;52.516;13.294;2023-08-08T03:31:57;14.90;99.90
47090;DHT22;32840;52.516;13.294;2023-08-08T03:34:42;14.90;99.90
47090;DHT22;32840;52.516;13.294;2023-08-08T03:37:27;14.90;99.90
47090;DHT22;32840;52.516;13.294;2023-08-08T03:40:12;14.90;99.90
47090;DHT22;32840;52.516;13.294;2023-08-08T03:42:59;14.80;99.90
47090;DHT22;32840;52.516;13.294;2023-08-08T03:45:44;14.80;99.90
47090;DHT22;32840;52.516;13.294;2023-08-08T03:48:30;14.80;99.90
47090;DHT22;32840;52.516;13.294;2023-08-08T03:51:15;14.90;99.90
47090;DHT22;32840;52.516;13.294;2023-08-08T03:54:00;14.90;99.90
47090;DHT22;32840;52.516;13.294;2023-08-08T03:56:45;14.90;99.90
47090;DHT22;32840;52.516;13.294;2023-08-08T03:59:29;14.90;99.90
47090;DHT22;32840;52.516;13.294;2023-08-08T04:02:14;15.00;99.90
47090;DHT22;32840;52.516;13.294;2023-08-08T04:04:59;15.10;99.90
47090;DHT22;32840;52.516;13.294;2023-08-08T04:07:44;15.10;99.90
47090;DHT22;32840;52.516;13.294;2023-08-08T04:10:29;15.10;99.90
47090;DHT22;32840;52.516;13.294;2023-08-08T04:13:14;15.10;99.90
47090;DHT22;32840;52.516;13.294;2023-08-08T04:16:00;15.10;99.90
47090;DHT22;32840;52.516;13.294;2023-08-08T04:18:45;15.10;99.90
47090;DHT22;32840;52.516;13.294;2023-08-08T04:21:30;15.20;99.90
47090;DHT22;32840;52.516;13.294;2023-08-08T04:24:16;15.20;99.90
47090;DHT22;32840;52.516;13.294;2023-08-08T04:27:01;15.20;99.90
47090;DHT22;32840;52.516;13.294;2023-08-08T04:29:47;15.20;99.90
47090;DHT22;32840;52.516;13.294;2023-08-08T04:32:32;15.10;99.90
47090;DHT22;32840;52.516;13.294;2023-08-08T04:35:17;15.20;99.90
47090;DHT22;32840;52.516;13.294;2023-08-08T04:38:02;15.10;99.90
47090;DHT22;32840;52.516;13.294;2023-08-08T04:40:46;15.10;99.90
47090;DHT22;32840;52.516;13.294;2023-08-08T04:43:31;15.10;99.90
47090;DHT22;32840;52.516;13.294;2023-08-08T04:46:16;15.10;99.90
47090;DHT22;32840;52.516;13.294;2023-08-08T04:49:01;15.20;99.90
47090;DHT22;32840;52.516;13.294;2023-08-08T04:51:48;15.20;99.90
47090;DHT22;32840;52.516;13.294;2023-08-08T04:54:32;15.20;99.90
47090;DHT22;32840;52.516;13.294;2023-08-08T04:57:17;15.30;99.90
47090;DHT22;32840;52.516;13.294;2023-08-08T05:00:02;15.30;99.90
47090;DHT22;32840;52.516;13.294;2023-08-08T05:02:50;15.30;99.90
47090;DHT22;32840;52.516;13.294;2023-08-08T05:05:35;15.30;99.90
47090;DHT22;32840;52.516;13.294;2023-08-08T05:08:20;15.30;99.90
47090;DHT22;32840;52.516;13.294;2023-08-08T05:11:05;15.30;99.90
47090;DHT22;32840;52.516;13.294;2023-08-08T05:13:50;15.30;99.90
47090;DHT22;32840;52.516;13.294;2023-08-08T05:16:35;15.20;99.90
47090;DHT22;32840;52.516;13.294;2023-08-08T05:19:20;15.20;99.90
47090;DHT22;32840;52.516;13.294;2023-08-08T05:22:05;15.20;99.90
47090;DHT22;32840;52.516;13.294;2023-08-08T05:24:50;15.20;99.90
47090;DHT22;32840;52.516;13.294;2023-08-08T05:27:35;15.20;99.90
47090;DHT22;32840;52.516;13.294;2023-08-08T05:30:20;15.20;99.90
47090;DHT22;32840;52.516;13.294;2023-08-08T05:33:05;15.30;99.90
47090;DHT22;32840;52.516;13.294;2023-08-08T05:35:50;15.40;99.90
47090;DHT22;32840;52.516;13.294;2023-08-08T05:38:37;15.60;99.90
47090;DHT22;32840;52.516;13.294;2023-08-08T05:41:22;15.80;99.90
47090;DHT22;32840;52.516;13.294;2023-08-08T05:44:07;15.90;99.90
47090;DHT22;32840;52.516;13.294;2023-08-08T05:46:52;16.10;99.90
47090;DHT22;32840;52.516;13.294;2023-08-08T05:49:39;16.30;99.90
47090;DHT22;32840;52.516;13.294;2023-08-08T05:52:27;16.30;99.90
47090;DHT22;32840;52.516;13.294;2023-08-08T05:55:12;16.30;99.90
47090;DHT22;32840;52.516;13.294;2023-08-08T05:57:59;16.20;99.90
47090;DHT22;32840;52.516;13.294;2023-08-08T06:00:44;16.20;99.90
47090;DHT22;32840;52.516;13.294;2023-08-08T06:03:29;16.20;99.90
47090;DHT22;32840;52.516;13.294;2023-08-08T06:06:16;16.30;99.90
47090;DHT22;32840;52.516;13.294;2023-08-08T06:09:01;16.40;99.90
47090;DHT22;32840;52.516;13.294;2023-08-08T06:11:47;16.50;99.90
47090;DHT22;32840;52.516;13.294;2023-08-08T06:14:33;16.60;99.90
47090;DHT22;32840;52.516;13.294;2023-08-08T06:17:19;16.60;99.90
47090;DHT22;32840;52.516;13.294;2023-08-08T06:20:11;16.60;99.90
47090;DHT22;32840;52.516;13.294;2023-08-08T06:22:57;16.70;99.90
47090;DHT22;32840;52.516;13.294;2023-08-08T06:25:44;16.90;99.90
47090;DHT22;32840;52.516;13.294;2023-08-08T06:28:31;17.10;99.90
47090;DHT22;32840;52.516;13.294;2023-08-08T06:31:19;17.30;99.90
47090;DHT22;32840;52.516;13.294;2023-08-08T06:34:06;17.40;99.90
47090;DHT22;32840;52.516;13.294;2023-08-08T06:36:56;17.30;99.90
47090;DHT22;32840;52.516;13.294;2023-08-08T06:39:43;17.30;99.90
47090;DHT22;32840;52.516;13.294;2023-08-08T06:42:29;17.10;99.90
47090;DHT22;32840;52.516;13.294;2023-08-08T06:45:15;17.20;99.90
47090;DHT22;32840;52.516;13.294;2023-08-08T06:48:00;17.10;99.90
47090;DHT22;32840;52.516;13.294;2023-08-08T06:50:45;17.10;99.90
47090;DHT22;32840;52.516;13.294;2023-08-08T06:53:30;17.10;99.90
47090;DHT22;32840;52.516;13.294;2023-08-08T06:56:15;17.10;99.90
47090;DHT22;32840;52.516;13.294;2023-08-08T06:58:59;17.20;99.90
47090;DHT22;32840;52.516;13.294;2023-08-08T07:01:45;17.40;99.90
47090;DHT22;32840;52.516;13.294;2023-08-08T07:04:30;17.40;99.90
47090;DHT22;32840;52.516;13.294;2023-08-08T07:07:15;17.50;99.90
47090;DHT22;32840;52.516;13.294;2023-08-08T07:10:00;17.70;99.90
47090;DHT22;32840;52.516;13.294;2023-08-08T07:12:45;17.70;99.90
47090;DHT22;32840;52.516;13.294;2023-08-08T07:15:29;17.80;99.90
47090;DHT22;32840;52.516;13.294;2023-08-08T07:18:15;17.90;99.90
47090;DHT22;32840;52.516;13.294;2023-08-08T07:21:00;17.90;99.90
47090;DHT22;32840;52.516;13.294;2023-08-08T07:23:45;18.00;99.90
47090;DHT22;32840;52.516;13.294;2023-08-08T07:26:30;18.10;99.90
47090;DHT22;32840;52.516;13.294;2023-08-08T07:29:15;18.10;99.90
47090;DHT22;32840;52.516;13.294;2023-08-08T07:32:03;18.00;99.90
47090;DHT22;32840;52.516;13.294;2023-08-08T07:34:49;18.10;99.90
47090;DHT22;32840;52.516;13.294;2023-08-08T07:37:34;18.20;99.90
47090;DHT22;32840;52.516;13.294;2023-08-08T07:40:20;18.30;99.90
47090;DHT22;32840;52.516;13.294;2023-08-08T07:43:06;18.50;99.90
47090;DHT22;32840;52.516;13.294;2023-08-08T07:45:51;18.60;99.90
47090;DHT22;32840;52.516;13.294;2023-08-08T07:48:35;18.60;99.90
47090;DHT22;32840;52.516;13.294;2023-08-08T07:51:20;18.70;99.90
47090;DHT22;32840;52.516;13.294;2023-08-08T07:54:05;18.70;99.90
47090;DHT22;32840;52.516;13.294;2023-08-08T07:56:53;18.80;99.90
47090;DHT22;32840;52.516;13.294;2023-08-08T07:59:38;18.70;99.90
47090;DHT22;32840;52.516;13.294;2023-08-08T08:02:23;18.80;99.90
47090;DHT22;32840;52.516;13.294;2023-08-08T08:05:08;19.00;99.90
47090;DHT22;32840;52.516;13.294;2023-08-08T08:07:54;19.20;99.90
47090;DHT22;32840;52.516;13.294;2023-08-08T08:10:39;19.30;99.90
47090;DHT22;32840;52.516;13.294;2023-08-08T08:13:24;19.50;99.90
47090;DHT22;32840;52.516;13.294;2023-08-08T08:16:09;19.70;99.90
47090;DHT22;32840;52.516;13.294;2023-08-08T08:18:54;19.80;99.90
47090;DHT22;32840;52.516;13.294;2023-08-08T08:21:39;19.90;99.90
47090;DHT22;32840;52.516;13.294;2023-08-08T08:24:24;20.00;99.90
47090;DHT22;32840;52.516;13.294;2023-08-08T08:27:09;19.90;99.90
47090;DHT22;32840;52.516;13.294;2023-08-08T08:29:54;20.10;99.90
47090;DHT22;32840;52.516;13.294;2023-08-08T08:32:40;19.90;99.90
47090;DHT22;32840;52.516;13.294;2023-08-08T08:35:26;19.80;99.90
47090;DHT22;32840;52.516;13.294;2023-08-08T08:38:11;19.80;99.90
47090;DHT22;32840;52.516;13.294;2023-08-08T08:40:56;19.60;99.90
47090;DHT22;32840;52.516;13.294;2023-08-08T08:43:42;19.50;99.90
47090;DHT22;32840;52.516;13.294;2023-08-08T08:46:27;19.50;99.90
47090;DHT22;32840;52.516;13.294;2023-08-08T08:49:13;19.60;99.90
47090;DHT22;32840;52.516;13.294;2023-08-08T08:52:00;19.80;99.90
47090;DHT22;32840;52.516;13.294;2023-08-08T08:54:45;20.00;99.90
47090;DHT22;32840;52.516;13.294;2023-08-08T08:57:30;20.10;99.90
47090;DHT22;32840;52.516;13.294;2023-08-08T09:00:17;20.00;99.90
47090;DHT22;32840;52.516;13.294;2023-08-08T09:03:03;20.20;99.90
47090;DHT22;32840;52.516;13.294;2023-08-08T09:05:49;20.40;99.90
47090;DHT22;32840;52.516;13.294;2023-08-08T09:08:33;20.30;99.90
47090;DHT22;32840;52.516;13.294;2023-08-08T09:11:19;20.40;99.90
47090;DHT22;32840;52.516;13.294;2023-08-08T09:14:04;20.50;99.90
47090;DHT22;32840;52.516;13.294;2023-08-08T09:16:59;20.50;99.90
47090;DHT22;32840;52.516;13.294;2023-08-08T09:19:45;20.50;99.90
47090;DHT22;32840;52.516;13.294;2023-08-08T09:22:31;20.50;99.90
47090;DHT22;32840;52.516;13.294;2023-08-08T09:25:16;20.50;99.90
47090;DHT22;32840;52.516;13.294;2023-08-08T09:28:01;20.50;99.90
47090;DHT22;32840;52.516;13.294;2023-08-08T09:30:46;20.80;98.80
47090;DHT22;32840;52.516;13.294;2023-08-08T09:33:31;20.90;98.60
47090;DHT22;32840;52.516;13.294;2023-08-08T09:36:16;21.10;98.30
47090;DHT22;32840;52.516;13.294;2023-08-08T09:39:01;21.30;98.10
47090;DHT22;32840;52.516;13.294;2023-08-08T09:41:47;21.80;96.20
47090;DHT22;32840;52.516;13.294;2023-08-08T09:44:32;22.00;95.20
47090;DHT22;32840;52.516;13.294;2023-08-08T09:47:23;22.00;93.90
47090;DHT22;32840;52.516;13.294;2023-08-08T09:50:08;21.80;93.50
47090;DHT22;32840;52.516;13.294;2023-08-08T09:52:54;21.50;94.10
47090;DHT22;32840;52.516;13.294;2023-08-08T09:55:40;21.10;94.00
47090;DHT22;32840;52.516;13.294;2023-08-08T09:58:25;20.90;96.10
47090;DHT22;32840;52.516;13.294;2023-08-08T10:01:10;20.60;99.30
47090;DHT22;32840;52.516;13.294;2023-08-08T10:03:58;20.30;99.90
47090;DHT22;32840;52.516;13.294;2023-08-08T10:06:43;20.10;99.90
47090;DHT22;32840;52.516;13.294;2023-08-08T10:09:28;20.00;99.90
47090;DHT22;32840;52.516;13.294;2023-08-08T10:12:13;20.10;99.90
47090;DHT22;32840;52.516;13.294;2023-08-08T10:14:59;20.00;99.90
47090;DHT22;32840;52.516;13.294;2023-08-08T10:17:44;19.80;99.90
47090;DHT22;32840;52.516;13.294;2023-08-08T10:20:31;19.90;99.90
47090;DHT22;32840;52.516;13.294;2023-08-08T10:23:19;20.00;99.90
47090;DHT22;32840;52.516;13.294;2023-08-08T10:26:05;20.10;99.90
47090;DHT22;32840;52.516;13.294;2023-08-08T10:28:55;20.20;99.90
47090;DHT22;32840;52.516;13.294;2023-08-08T10:31:57;20.10;99.90
47090;DHT22;32840;52.516;13.294;2023-08-08T10:34:44;20.20;99.90
47090;DHT22;32840;52.516;13.294;2023-08-08T10:37:29;20.20;99.90
47090;DHT22;32840;52.516;13.294;2023-08-08T10:40:17;20.40;99.90
47090;DHT22;32840;52.516;13.294;2023-08-08T10:43:11;20.30;99.90
47090;DHT22;32840;52.516;13.294;2023-08-08T10:45:58;20.10;99.90
47090;DHT22;32840;52.516;13.294;2023-08-08T10:48:54;19.90;99.90
47090;DHT22;32840;52.516;13.294;2023-08-08T10:51:42;19.90;99.90
47090;DHT22;32840;52.516;13.294;2023-08-08T10:54:28;20.10;99.90
47090;DHT22;32840;52.516;13.294;2023-08-08T10:57:16;20.10;99.90
47090;DHT22;32840;52.516;13.294;2023-08-08T11:00:17;20.10;99.90
47090;DHT22;32840;52.516;13.294;2023-08-08T11:03:03;20.00;99.90
47090;DHT22;32840;52.516;13.294;2023-08-08T11:05:51;19.90;99.90
47090;DHT22;32840;52.516;13.294;2023-08-08T11:08:37;19.90;99.90
47090;DHT22;32840;52.516;13.294;2023-08-08T11:11:23;20.00;99.90
47090;DHT22;32840;52.516;13.294;2023-08-08T11:14:16;20.00;99.70
47090;DHT22;32840;52.516;13.294;2023-08-08T11:17:02;20.10;99.70
47090;DHT22;32840;52.516;13.294;2023-08-08T11:19:48;20.10;99.90
47090;DHT22;32840;52.516;13.294;2023-08-08T11:22:33;20.20;98.90
47090;DHT22;32840;52.516;13.294;2023-08-08T11:25:18;20.20;99.70
47090;DHT22;32840;52.516;13.294;2023-08-08T11:28:03;20.20;99.20
47090;DHT22;32840;52.516;13.294;2023-08-08T11:30:48;20.10;97.90
47090;DHT22;32840;52.516;13.294;2023-08-08T11:33:33;20.10;98.20
47090;DHT22;32840;52.516;13.294;2023-08-08T11:36:18;20.00;97.80
47090;DHT22;32840;52.516;13.294;2023-08-08T11:39:04;19.90;97.50
47090;DHT22;32840;52.516;13.294;2023-08-08T11:41:52;19.70;97.60
47090;DHT22;32840;52.516;13.294;2023-08-08T11:44:37;19.50;98.00
47090;DHT22;32840;52.516;13.294;2023-08-08T11:47:25;19.50;98.40
47090;DHT22;32840;52.516;13.294;2023-08-08T11:50:11;19.50;99.40
47090;DHT22;32840;52.516;13.294;2023-08-08T11:52:56;19.50;99.80
47090;DHT22;32840;52.516;13.294;2023-08-08T11:55:41;19.60;99.00
47090;DHT22;32840;52.516;13.294;2023-08-08T11:58:26;19.60;99.30
47090;DHT22;32840;52.516;13.294;2023-08-08T12:01:11;19.60;99.90
47090;DHT22;32840;52.516;13.294;2023-08-08T12:04:05;19.70;99.20
47090;DHT22;32840;52.516;13.294;2023-08-08T12:06:50;19.80;99.70
47090;DHT22;32840;52.516;13.294;2023-08-08T12:09:37;19.90;99.00
47090;DHT22;32840;52.516;13.294;2023-08-08T12:12:22;19.90;99.30
47090;DHT22;32840;52.516;13.294;2023-08-08T12:15:08;19.90;98.50
47090;DHT22;32840;52.516;13.294;2023-08-08T12:17:53;19.90;99.80
47090;DHT22;32840;52.516;13.294;2023-08-08T12:20:38;20.00;99.40
47090;DHT22;32840;52.516;13.294;2023-08-08T12:23:23;20.00;99.40
47090;DHT22;32840;52.516;13.294;2023-08-08T12:26:08;20.10;99.70
47090;DHT22;32840;52.516;13.294;2023-08-08T12:28:53;20.20;98.90
47090;DHT22;32840;52.516;13.294;2023-08-08T12:31:39;20.20;99.20
47090;DHT22;32840;52.516;13.294;2023-08-08T12:34:24;20.20;99.30
47090;DHT22;32840;52.516;13.294;2023-08-08T12:37:09;20.30;99.20
47090;DHT22;32840;52.516;13.294;2023-08-08T12:39:54;20.30;98.30
47090;DHT22;32840;52.516;13.294;2023-08-08T12:42:39;20.30;98.60
47090;DHT22;32840;52.516;13.294;2023-08-08T12:45:24;20.30;97.40
47090;DHT22;32840;52.516;13.294;2023-08-08T12:48:09;20.30;97.40
47090;DHT22;32840;52.516;13.294;2023-08-08T12:50:54;20.30;97.00
47090;DHT22;32840;52.516;13.294;2023-08-08T12:53:39;20.50;96.90
47090;DHT22;32840;52.516;13.294;2023-08-08T12:56:24;20.40;96.60
47090;DHT22;32840;52.516;13.294;2023-08-08T12:59:09;20.50;96.60
47090;DHT22;32840;52.516;13.294;2023-08-08T13:01:54;20.60;96.50
47090;DHT22;32840;52.516;13.294;2023-08-08T13:04:39;20.70;95.50
47090;DHT22;32840;52.516;13.294;2023-08-08T13:07:24;20.70;92.80
47090;DHT22;32840;52.516;13.294;2023-08-08T13:10:10;20.70;93.00
47090;DHT22;32840;52.516;13.294;2023-08-08T13:12:55;20.70;92.60
47090;DHT22;32840;52.516;13.294;2023-08-08T13:15:40;20.60;92.20
47090;DHT22;32840;52.516;13.294;2023-08-08T13:18:25;20.70;91.80
47090;DHT22;32840;52.516;13.294;2023-08-08T13:21:10;20.60;91.30
47090;DHT22;32840;52.516;13.294;2023-08-08T13:23:55;20.50;91.50
47090;DHT22;32840;52.516;13.294;2023-08-08T13:26:40;20.40;92.50
47090;DHT22;32840;52.516;13.294;2023-08-08T13:29:25;20.30;91.40
47090;DHT22;32840;52.516;13.294;2023-08-08T13:32:10;20.30;91.60
47090;DHT22;32840;52.516;13.294;2023-08-08T13:34:55;20.40;92.30
47090;DHT22;32840;52.516;13.294;2023-08-08T13:37:40;20.30;92.00
47090;DHT22;32840;52.516;13.294;2023-08-08T13:40:25;19.90;95.50
47090;DHT22;32840;52.516;13.294;2023-08-08T13:43:10;19.50;99.90
47090;DHT22;32840;52.516;13.294;2023-08-08T13:45:55;19.00;99.90
47090;DHT22;32840;52.516;13.294;2023-08-08T13:48:39;18.80;99.90
47090;DHT22;32840;52.516;13.294;2023-08-08T13:51:24;18.60;99.90
47090;DHT22;32840;52.516;13.294;2023-08-08T13:54:09;18.60;99.90
47090;DHT22;32840;52.516;13.294;2023-08-08T13:56:54;18.80;99.90
47090;DHT22;32840;52.516;13.294;2023-08-08T13:59:39;18.80;99.90
47090;DHT22;32840;52.516;13.294;2023-08-08T14:02:24;19.00;99.90
47090;DHT22;32840;52.516;13.294;2023-08-08T14:05:10;19.20;99.90
47090;DHT22;32840;52.516;13.294;2023-08-08T14:07:55;19.20;99.90
47090;DHT22;32840;52.516;13.294;2023-08-08T14:10:40;19.10;99.90
47090;DHT22;32840;52.516;13.294;2023-08-08T14:13:25;19.20;99.90
47090;DHT22;32840;52.516;13.294;2023-08-08T14:16:10;19.20;99.90
47090;DHT22;32840;52.516;13.294;2023-08-08T14:18:54;19.20;99.90
47090;DHT22;32840;52.516;13.294;2023-08-08T14:21:39;19.10;99.90
47090;DHT22;32840;52.516;13.294;2023-08-08T14:24:24;19.10;99.90
47090;DHT22;32840;52.516;13.294;2023-08-08T14:27:10;19.10;99.90
47090;DHT22;32840;52.516;13.294;2023-08-08T14:29:55;19.10;99.90
47090;DHT22;32840;52.516;13.294;2023-08-08T14:32:40;19.10;99.90
47090;DHT22;32840;52.516;13.294;2023-08-08T14:35:25;19.10;99.90
47090;DHT22;32840;52.516;13.294;2023-08-08T14:38:10;19.20;99.90
47090;DHT22;32840;52.516;13.294;2023-08-08T14:40:55;19.20;99.90
47090;DHT22;32840;52.516;13.294;2023-08-08T14:43:41;19.30;99.90
47090;DHT22;32840;52.516;13.294;2023-08-08T14:46:26;19.40;99.90
47090;DHT22;32840;52.516;13.294;2023-08-08T14:49:11;19.40;99.90
47090;DHT22;32840;52.516;13.294;2023-08-08T14:51:56;19.50;99.90
47090;DHT22;32840;52.516;13.294;2023-08-08T14:54:40;19.50;99.90
47090;DHT22;32840;52.516;13.294;2023-08-08T14:57:26;19.60;99.90
47090;DHT22;32840;52.516;13.294;2023-08-08T15:00:11;19.50;99.90
47090;DHT22;32840;52.516;13.294;2023-08-08T15:02:57;19.60;99.90
47090;DHT22;32840;52.516;13.294;2023-08-08T15:05:42;19.60;99.90
47090;DHT22;32840;52.516;13.294;2023-08-08T15:08:29;19.70;99.90
47090;DHT22;32840;52.516;13.294;2023-08-08T15:11:15;19.60;99.90
47090;DHT22;32840;52.516;13.294;2023-08-08T15:13:59;19.50;99.90
47090;DHT22;32840;52.516;13.294;2023-08-08T15:16:52;19.30;99.90
47090;DHT22;32840;52.516;13.294;2023-08-08T15:19:38;19.10;99.90
47090;DHT22;32840;52.516;13.294;2023-08-08T15:22:22;18.90;99.90
47090;DHT22;32840;52.516;13.294;2023-08-08T15:25:07;18.70;99.90
47090;DHT22;32840;52.516;13.294;2023-08-08T15:27:52;18.60;99.90
47090;DHT22;32840;52.516;13.294;2023-08-08T15:30:38;18.30;99.90
47090;DHT22;32840;52.516;13.294;2023-08-08T15:33:22;18.00;99.90
47090;DHT22;32840;52.516;13.294;2023-08-08T15:36:07;17.80;99.90
47090;DHT22;32840;52.516;13.294;2023-08-08T15:38:52;17.50;99.90
47090;DHT22;32840;52.516;13.294;2023-08-08T15:41:37;17.30;99.90
47090;DHT22;32840;52.516;13.294;2023-08-08T15:44:22;17.00;99.90
47090;DHT22;32840;52.516;13.294;2023-08-08T15:47:07;16.80;99.90
47090;DHT22;32840;52.516;13.294;2023-08-08T15:49:52;16.70;99.90
47090;DHT22;32840;52.516;13.294;2023-08-08T15:52:38;16.70;99.90
47090;DHT22;32840;52.516;13.294;2023-08-08T15:55:23;16.80;99.90
47090;DHT22;32840;52.516;13.294;2023-08-08T15:58:08;16.90;99.90
47090;DHT22;32840;52.516;13.294;2023-08-08T16:00:53;17.20;99.90
47090;DHT22;32840;52.516;13.294;2023-08-08T16:03:40;17.20;99.90
47090;DHT22;32840;52.516;13.294;2023-08-08T16:06:25;17.30;99.90
47090;DHT22;32840;52.516;13.294;2023-08-08T16:09:10;17.20;99.90
47090;DHT22;32840;52.516;13.294;2023-08-08T16:11:55;17.20;99.90
47090;DHT22;32840;52.516;13.294;2023-08-08T16:14:40;17.10;99.90
47090;DHT22;32840;52.516;13.294;2023-08-08T16:17:25;17.00;99.90
47090;DHT22;32840;52.516;13.294;2023-08-08T16:20:10;16.90;99.90
47090;DHT22;32840;52.516;13.294;2023-08-08T16:22:55;16.80;99.90
47090;DHT22;32840;52.516;13.294;2023-08-08T16:25:40;16.90;99.90
47090;DHT22;32840;52.516;13.294;2023-08-08T16:28:26;16.80;99.90
47090;DHT22;32840;52.516;13.294;2023-08-08T16:31:13;16.90;99.90
47090;DHT22;32840;52.516;13.294;2023-08-08T16:33:58;16.90;99.90
47090;DHT22;32840;52.516;13.294;2023-08-08T16:36:43;17.10;99.90
47090;DHT22;32840;52.516;13.294;2023-08-08T16:39:28;17.10;99.90
47090;DHT22;32840;52.516;13.294;2023-08-08T16:42:14;17.20;99.90
47090;DHT22;32840;52.516;13.294;2023-08-08T16:44:59;17.20;99.90
47090;DHT22;32840;52.516;13.294;2023-08-08T16:47:44;17.20;99.90
47090;DHT22;32840;52.516;13.294;2023-08-08T16:50:29;17.10;99.90
47090;DHT22;32840;52.516;13.294;2023-08-08T16:53:14;17.20;99.90
47090;DHT22;32840;52.516;13.294;2023-08-08T16:55:59;17.50;99.90
47090;DHT22;32840;52.516;13.294;2023-08-08T16:58:47;17.40;99.90
47090;DHT22;32840;52.516;13.294;2023-08-08T17:01:35;17.20;99.90
47090;DHT22;32840;52.516;13.294;2023-08-08T17:04:21;17.20;99.90
47090;DHT22;32840;52.516;13.294;2023-08-08T17:07:06;17.20;99.90
47090;DHT22;32840;52.516;13.294;2023-08-08T17:09:51;17.20;99.90